createdAt,value
2023-02-25T00:01:38.711Z,8.70
2023-02-25T00:04:08.048Z,8.60
2023-02-25T00:06:37.435Z,8.60
2023-02-25T00:09:11.238Z,8.60
2023-02-25T00:14:08.931Z,8.10
2023-02-25T00:16:38.232Z,8.50
2023-02-25T00:21:33.066Z,8.50
2023-02-25T00:24:15.588Z,8.40
2023-02-25T00:26:42.887Z,8.50
2023-02-25T00:29:09.534Z,8.90
2023-02-25T00:31:38.946Z,8.40
2023-02-25T00:34:10.598Z,8.40
2023-02-25T00:36:39.737Z,8.60
2023-02-25T00:39:09.314Z,8.20
2023-02-25T00:41:36.164Z,8.40
2023-02-25T00:44:07.171Z,8.40
2023-02-25T00:46:38.337Z,8.30
2023-02-25T00:49:05.156Z,8.40
2023-02-25T00:51:33.646Z,8.50
2023-02-25T00:54:02.540Z,8.40
2023-02-25T00:56:32.114Z,8.40
2023-02-25T00:58:59.950Z,9.00
2023-02-25T01:01:31.103Z,8.30
2023-02-25T01:04:00.887Z,8.30
2023-02-25T01:06:30.084Z,8.30
2023-02-25T01:09:02.647Z,8.30
2023-02-25T01:11:33.608Z,9.30
2023-02-25T01:14:08.735Z,8.20
2023-02-25T01:16:36.040Z,8.20
2023-02-25T01:19:14.985Z,8.30
2023-02-25T01:21:44.508Z,8.40
2023-02-25T01:24:14.847Z,8.10
2023-02-25T01:26:45.787Z,8.30
2023-02-25T01:29:15.426Z,8.10
2023-02-25T01:31:43.985Z,8.20
2023-02-25T01:34:17.602Z,8.20
2023-02-25T01:36:47.668Z,8.60
2023-02-25T01:39:15.851Z,8.20
2023-02-25T01:44:21.002Z,8.10
2023-02-25T01:46:52.195Z,8.20
2023-02-25T01:49:29.093Z,8.20
2023-02-25T01:52:13.564Z,8.20
2023-02-25T01:54:45.861Z,8.40
2023-02-25T01:57:15.267Z,8.10
2023-02-25T01:59:43.215Z,8.10
2023-02-25T02:02:12.847Z,8.40
2023-02-25T02:04:45.271Z,8.10
2023-02-25T02:07:14.422Z,8.10
2023-02-25T02:09:55.978Z,8.10
2023-02-25T02:12:26.237Z,8.00
2023-02-25T02:14:56.009Z,8.00
2023-02-25T02:17:43.750Z,8.10
2023-02-25T02:20:20.719Z,8.10
2023-02-25T02:22:55.032Z,8.00
2023-02-25T02:25:56.941Z,8.10
2023-02-25T02:28:42.854Z,7.90
2023-02-25T02:31:18.097Z,8.00
2023-02-25T02:33:59.504Z,7.70
2023-02-25T02:36:44.268Z,8.00
2023-02-25T02:39:18.990Z,7.90
2023-02-25T02:42:07.591Z,7.90
2023-02-25T02:44:43.882Z,7.90
2023-02-25T02:47:25.678Z,8.00
2023-02-25T02:50:02.626Z,7.90
2023-02-25T02:52:32.846Z,7.90
2023-02-25T02:55:08.428Z,7.90
2023-02-25T02:57:39.811Z,8.00
2023-02-25T03:00:13.799Z,7.90
2023-02-25T03:02:42.714Z,7.90
2023-02-25T03:05:17.004Z,7.80
2023-02-25T03:08:12.885Z,7.80
2023-02-25T03:10:45.262Z,7.80
2023-02-25T03:13:14.762Z,7.80
2023-02-25T03:15:42.556Z,8.10
2023-02-25T03:18:34.933Z,7.80
2023-02-25T03:21:07.715Z,7.80
2023-02-25T03:23:41.744Z,7.80
2023-02-25T03:26:17.727Z,8.00
2023-02-25T03:28:46.052Z,7.80
2023-02-25T03:31:37.210Z,7.70
2023-02-25T03:34:14.242Z,7.60
2023-02-25T03:37:02.313Z,7.80
2023-02-25T03:39:35.061Z,7.80
2023-02-25T03:42:06.685Z,7.70
2023-02-25T03:44:42.347Z,7.80
2023-02-25T03:47:10.845Z,7.70
2023-02-25T03:49:59.166Z,7.70
2023-02-25T03:52:27.540Z,7.70
2023-02-25T03:54:56.960Z,7.70
2023-02-25T03:57:34.580Z,7.70
2023-02-25T04:00:01.329Z,8.00
2023-02-25T04:02:33.722Z,7.80
2023-02-25T04:05:04.977Z,7.70
2023-02-25T04:07:31.669Z,7.70
2023-02-25T04:10:05.227Z,8.40
2023-02-25T04:12:32.468Z,7.50
2023-02-25T04:14:59.197Z,7.40
2023-02-25T04:17:28.236Z,7.40
2023-02-25T04:19:59.513Z,7.30
2023-02-25T04:24:53.556Z,7.50
2023-02-25T04:27:20.492Z,7.40
2023-02-25T04:29:47.167Z,7.40
2023-02-25T04:32:16.441Z,7.40
2023-02-25T04:34:45.677Z,7.40
2023-02-25T04:37:12.348Z,7.40
2023-02-25T04:39:41.593Z,7.50
2023-02-25T04:42:08.576Z,7.30
2023-02-25T04:44:35.482Z,7.40
2023-02-25T04:47:05.104Z,7.20
2023-02-25T04:49:45.074Z,7.30
2023-02-25T04:52:15.461Z,7.30
2023-02-25T04:54:46.734Z,7.10
2023-02-25T04:57:13.498Z,7.40
2023-02-25T04:59:43.225Z,7.20
2023-02-25T05:02:10.131Z,7.20
2023-02-25T05:04:40.061Z,7.10
2023-02-25T05:07:07.734Z,7.10
2023-02-25T05:09:35.051Z,7.20
2023-02-25T05:12:04.685Z,7.10
2023-02-25T05:14:32.950Z,7.20
2023-02-25T05:16:59.759Z,7.10
2023-02-25T05:19:26.455Z,7.20
2023-02-25T05:21:53.914Z,7.10
2023-02-25T05:24:23.518Z,7.10
2023-02-25T05:26:51.634Z,7.00
2023-02-25T05:29:18.491Z,7.20
2023-02-25T05:31:45.497Z,7.00
2023-02-25T05:34:12.385Z,7.10
2023-02-25T05:36:40.298Z,7.00
2023-02-25T05:39:07.221Z,6.90
2023-02-25T05:41:36.445Z,7.00
2023-02-25T05:44:03.083Z,7.00
2023-02-25T05:46:29.954Z,7.90
2023-02-25T05:48:56.881Z,6.90
2023-02-25T05:51:28.227Z,7.00
2023-02-25T05:53:57.546Z,7.00
2023-02-25T05:56:25.954Z,7.20
2023-02-25T05:58:56.029Z,6.90
2023-02-25T06:01:29.297Z,6.90
2023-02-25T06:03:59.123Z,7.10
2023-02-25T06:06:30.884Z,6.90
2023-02-25T06:09:00.161Z,6.80
2023-02-25T06:11:30.265Z,6.80
2023-02-25T06:13:58.393Z,6.90
2023-02-25T06:16:32.151Z,7.00
2023-02-25T06:19:01.077Z,7.10
2023-02-25T06:21:27.994Z,6.90
2023-02-25T06:23:57.055Z,6.90
2023-02-25T06:26:24.150Z,6.80
2023-02-25T06:28:55.367Z,7.00
2023-02-25T06:31:24.633Z,6.90
2023-02-25T06:33:51.785Z,6.90
2023-02-25T06:36:21.514Z,6.80
2023-02-25T06:38:48.513Z,7.00
2023-02-25T06:41:23.105Z,7.00
2023-02-25T06:43:52.805Z,6.90
2023-02-25T06:46:22.973Z,6.80
2023-02-25T06:48:50.000Z,7.00
2023-02-25T06:51:16.785Z,7.60
2023-02-25T06:53:47.513Z,7.00
2023-02-25T06:56:20.118Z,6.90
2023-02-25T07:01:16.098Z,7.20
2023-02-25T07:03:43.629Z,7.10
2023-02-25T07:06:11.022Z,7.10
2023-02-25T07:11:22.220Z,7.20
2023-02-25T07:13:52.480Z,7.20
2023-02-25T07:16:20.436Z,7.10
2023-02-25T07:18:50.908Z,7.30
2023-02-25T07:21:18.327Z,7.30
2023-02-25T07:23:46.440Z,7.40
2023-02-25T07:26:14.576Z,7.40
2023-02-25T07:28:42.313Z,7.40
2023-02-25T07:31:21.798Z,7.20
2023-02-25T07:33:48.811Z,7.60
2023-02-25T07:36:20.089Z,7.60
2023-02-25T07:38:49.005Z,7.70
2023-02-25T07:41:23.795Z,7.80
2023-02-25T07:43:51.049Z,7.90
2023-02-25T07:46:18.026Z,8.00
2023-02-25T07:48:44.890Z,8.10
2023-02-25T07:51:15.817Z,8.10
2023-02-25T07:53:43.126Z,8.00
2023-02-25T07:56:10.192Z,8.20
2023-02-25T07:58:37.513Z,8.60
2023-02-25T08:01:09.269Z,8.50
2023-02-25T08:03:38.581Z,8.60
2023-02-25T08:06:08.327Z,8.90
2023-02-25T08:08:38.399Z,8.90
2023-02-25T08:11:09.879Z,9.10
2023-02-25T08:13:37.074Z,9.30
2023-02-25T08:16:10.655Z,9.30
2023-02-25T08:18:38.158Z,9.30
2023-02-25T08:21:07.570Z,9.30
2023-02-25T08:23:36.818Z,9.40
2023-02-25T08:26:04.048Z,9.40
2023-02-25T08:28:34.959Z,9.30
2023-02-25T08:31:11.380Z,9.20
2023-02-25T08:33:43.513Z,9.10
2023-02-25T08:36:26.629Z,9.20
2023-02-25T08:38:54.244Z,9.30
2023-02-25T08:41:25.906Z,9.30
2023-02-25T08:43:54.851Z,9.20
2023-02-25T08:46:26.362Z,9.40
2023-02-25T08:48:56.786Z,9.30
2023-02-25T08:51:33.757Z,9.30
2023-02-25T08:54:07.014Z,9.20
2023-02-25T08:56:35.288Z,9.30
2023-02-25T08:59:05.154Z,9.50
2023-02-25T09:01:44.737Z,9.80
2023-02-25T09:04:21.535Z,10.10
2023-02-25T09:06:49.640Z,10.40
2023-02-25T09:09:17.962Z,10.60
2023-02-25T09:11:46.008Z,10.60
2023-02-25T09:14:15.466Z,10.80
2023-02-25T09:16:44.731Z,10.60
2023-02-25T09:19:12.587Z,10.60
2023-02-25T09:21:44.017Z,10.60
2023-02-25T09:24:16.335Z,10.60
2023-02-25T09:26:43.213Z,10.70
2023-02-25T09:29:10.593Z,10.90
2023-02-25T09:34:09.935Z,11.50
2023-02-25T09:36:37.178Z,11.50
2023-02-25T09:39:12.080Z,11.70
2023-02-25T09:44:15.762Z,11.70
2023-02-25T09:46:53.738Z,11.70
2023-02-25T09:49:38.003Z,11.80
2023-02-25T09:52:32.038Z,11.80
2023-02-25T09:55:22.024Z,11.80
2023-02-25T09:58:13.534Z,12.00
2023-02-25T10:00:55.542Z,11.70
2023-02-25T10:03:43.289Z,11.70
2023-02-25T10:06:31.652Z,11.70
2023-02-25T10:09:24.052Z,11.40
2023-02-25T10:12:10.120Z,11.80
2023-02-25T10:14:56.983Z,11.80
2023-02-25T10:18:00.531Z,11.80
2023-02-25T10:20:46.286Z,11.90
2023-02-25T10:23:38.051Z,11.90
2023-02-25T10:26:21.900Z,11.80
2023-02-25T10:28:53.834Z,11.90
2023-02-25T10:31:23.220Z,11.80
2023-02-25T10:33:53.622Z,11.80
2023-02-25T10:36:30.571Z,12.00
2023-02-25T10:38:57.813Z,12.00
2023-02-25T10:41:26.880Z,12.20
2023-02-25T10:43:55.108Z,11.90
2023-02-25T10:46:48.586Z,11.90
2023-02-25T10:49:22.983Z,11.90
2023-02-25T10:52:07.052Z,11.70
2023-02-25T10:54:45.292Z,11.70
2023-02-25T10:57:20.990Z,11.80
2023-02-25T10:59:49.139Z,11.80
2023-02-25T11:02:26.221Z,11.80
2023-02-25T11:04:56.275Z,11.80
2023-02-25T11:07:26.796Z,11.90
2023-02-25T11:10:21.188Z,11.80
2023-02-25T11:12:50.001Z,11.80
2023-02-25T11:15:45.406Z,12.00
2023-02-25T11:18:31.395Z,12.00
2023-02-25T11:21:03.739Z,12.20
2023-02-25T11:23:44.559Z,12.30
2023-02-25T11:26:35.622Z,12.60
2023-02-25T11:29:11.009Z,12.40
2023-02-25T11:31:45.028Z,12.40
2023-02-25T11:34:26.756Z,12.40
2023-02-25T11:36:55.688Z,12.50
2023-02-25T11:39:30.787Z,12.60
2023-02-25T11:42:04.431Z,12.60
2023-02-25T11:44:42.328Z,12.40
2023-02-25T11:47:31.814Z,12.40
2023-02-25T11:50:07.905Z,12.50
2023-02-25T11:52:58.780Z,12.50
2023-02-25T11:55:55.340Z,12.40
2023-02-25T11:58:40.725Z,12.30
2023-02-25T12:01:45.303Z,12.30
2023-02-25T12:04:34.070Z,12.10
2023-02-25T12:07:26.907Z,12.00
2023-02-25T12:10:04.657Z,11.90
2023-02-25T12:12:43.960Z,11.80
2023-02-25T12:15:19.119Z,11.70
2023-02-25T12:21:05.706Z,11.60
2023-02-25T12:24:09.654Z,11.60
2023-02-25T12:27:04.328Z,11.60
2023-02-25T12:29:33.712Z,11.30
2023-02-25T12:32:06.450Z,11.30
2023-02-25T12:34:51.063Z,11.40
2023-02-25T12:37:31.096Z,11.40
2023-02-25T12:40:10.756Z,11.30
2023-02-25T12:42:55.707Z,11.30
2023-02-25T12:45:34.427Z,11.30
2023-02-25T12:48:25.056Z,11.30
2023-02-25T12:51:25.583Z,11.40
2023-02-25T12:54:01.190Z,11.50
2023-02-25T12:57:01.225Z,11.40
2023-02-25T12:59:49.342Z,11.50
2023-02-25T13:02:24.962Z,11.40
2023-02-25T13:05:13.372Z,11.30
2023-02-25T13:07:48.137Z,11.20
2023-02-25T13:10:33.564Z,11.10
2023-02-25T13:13:22.161Z,10.90
2023-02-25T13:16:07.454Z,10.80
2023-02-25T13:18:50.783Z,10.60
2023-02-25T13:21:35.578Z,10.50
2023-02-25T13:24:13.585Z,10.40
2023-02-25T13:27:02.769Z,10.30
2023-02-25T13:30:09.382Z,10.30
2023-02-25T13:32:55.001Z,10.10
2023-02-25T13:35:40.036Z,10.10
2023-02-25T13:38:35.982Z,10.00
2023-02-25T13:41:11.684Z,10.20
2023-02-25T13:43:59.503Z,9.80
2023-02-25T13:47:04.021Z,9.50
2023-02-25T13:49:52.595Z,9.80
2023-02-25T13:52:46.098Z,9.80
2023-02-25T13:55:41.925Z,9.60
2023-02-25T13:58:19.546Z,9.70
2023-02-25T14:01:26.731Z,9.80
2023-02-25T14:04:21.475Z,9.80
2023-02-25T14:07:05.280Z,9.90
2023-02-25T14:10:00.415Z,10.00
2023-02-25T14:12:45.266Z,10.50
2023-02-25T14:15:28.768Z,10.20
2023-02-25T14:18:19.907Z,10.30
2023-02-25T14:20:59.519Z,10.00
2023-02-25T14:23:45.897Z,10.50
2023-02-25T14:26:36.851Z,10.50
2023-02-25T14:29:20.914Z,10.90
2023-02-25T14:34:41.201Z,10.70
2023-02-25T14:37:40.805Z,10.80
2023-02-25T14:40:19.767Z,11.00
2023-02-25T14:43:21.747Z,11.20
2023-02-25T14:46:10.306Z,10.90
2023-02-25T14:49:03.647Z,10.90
2023-02-25T14:51:55.301Z,10.90
2023-02-25T14:54:34.043Z,10.90
2023-02-25T14:57:15.404Z,10.90
2023-02-25T15:02:45.149Z,10.80
2023-02-25T15:05:25.763Z,10.80
2023-02-25T15:08:11.268Z,10.70
2023-02-25T15:10:47.612Z,10.70
2023-02-25T15:13:29.647Z,10.60
2023-02-25T15:16:27.720Z,10.60
2023-02-25T15:19:08.308Z,10.40
2023-02-25T15:21:39.733Z,10.70
2023-02-25T15:24:32.757Z,10.30
2023-02-25T15:27:02.541Z,10.30
2023-02-25T15:29:32.446Z,10.20
2023-02-25T15:35:03.420Z,10.00
2023-02-25T15:37:30.608Z,10.00
2023-02-25T15:40:17.348Z,10.00
2023-02-25T15:42:55.203Z,9.90
2023-02-25T15:45:30.642Z,9.80
2023-02-25T15:48:19.012Z,10.00
2023-02-25T15:50:46.403Z,10.30
2023-02-25T15:53:23.337Z,10.00
2023-02-25T15:56:11.023Z,9.90
2023-02-25T15:58:59.009Z,9.90
2023-02-25T16:01:43.672Z,9.70
2023-02-25T16:04:48.696Z,10.20
2023-02-25T16:07:18.693Z,9.40
2023-02-25T16:09:52.945Z,9.80
2023-02-25T16:12:22.168Z,9.30
2023-02-25T16:14:50.807Z,9.40
2023-02-25T16:17:29.255Z,9.40
2023-02-25T16:20:17.546Z,9.30
2023-02-25T16:22:46.732Z,9.30
2023-02-25T16:25:23.106Z,9.50
2023-02-25T16:30:28.584Z,9.30
2023-02-25T16:33:18.025Z,9.20
2023-02-25T16:36:14.704Z,9.20
2023-02-25T16:39:04.817Z,9.10
2023-02-25T16:41:38.305Z,9.00
2023-02-25T16:44:06.474Z,8.90
2023-02-25T16:46:41.543Z,8.70
2023-02-25T16:49:18.104Z,8.90
2023-02-25T16:51:54.907Z,8.80
2023-02-25T16:54:42.787Z,8.60
2023-02-25T16:57:19.677Z,8.60
2023-02-25T16:59:47.342Z,8.50
2023-02-25T17:02:19.258Z,8.30
2023-02-25T17:04:54.021Z,8.40
2023-02-25T17:07:27.687Z,8.30
2023-02-25T17:10:02.908Z,8.30
2023-02-25T17:12:41.315Z,8.20
2023-02-25T17:15:22.810Z,8.50
2023-02-25T17:17:53.906Z,8.10
2023-02-25T17:20:24.504Z,7.90
2023-02-25T17:22:54.766Z,8.00
2023-02-25T17:25:27.710Z,8.10
2023-02-25T17:27:55.036Z,7.90
2023-02-25T17:30:40.419Z,7.90
2023-02-25T17:33:18.166Z,7.80
2023-02-25T17:35:46.531Z,7.90
2023-02-25T17:38:20.419Z,7.70
2023-02-25T17:40:47.806Z,7.60
2023-02-25T17:45:46.111Z,7.70
2023-02-25T17:48:26.645Z,7.70
2023-02-25T17:50:59.587Z,7.60
2023-02-25T17:53:35.079Z,7.60
2023-02-25T17:56:25.403Z,7.50
2023-02-25T17:58:57.955Z,7.40
2023-02-25T18:01:30.725Z,7.30
2023-02-25T18:04:05.462Z,7.20
2023-02-25T18:06:38.521Z,7.10
2023-02-25T18:09:05.468Z,7.20
2023-02-25T18:11:37.970Z,7.10
2023-02-25T18:14:27.044Z,7.20
2023-02-25T18:19:37.458Z,7.10
2023-02-25T18:22:08.876Z,7.00
2023-02-25T18:24:37.853Z,7.10
2023-02-25T18:27:20.725Z,6.90
2023-02-25T18:29:48.108Z,7.00
2023-02-25T18:32:17.471Z,6.90
2023-02-25T18:34:46.385Z,6.80
2023-02-25T18:37:18.061Z,6.80
2023-02-25T18:39:49.196Z,6.90
2023-02-25T18:42:19.941Z,6.70
2023-02-25T18:44:47.808Z,6.70
2023-02-25T18:47:16.595Z,6.90
2023-02-25T18:52:25.153Z,6.70
2023-02-25T18:57:25.567Z,6.50
2023-02-25T18:59:53.055Z,6.60
2023-02-25T19:02:35.047Z,6.70
2023-02-25T19:05:02.922Z,6.50
2023-02-25T19:07:36.531Z,6.60
2023-02-25T19:10:04.359Z,6.50
2023-02-25T19:12:33.890Z,6.50
2023-02-25T19:17:34.086Z,5.90
2023-02-25T19:20:01.161Z,6.30
2023-02-25T19:22:27.892Z,6.60
2023-02-25T19:24:54.639Z,6.30
2023-02-25T19:27:24.651Z,6.60
2023-02-25T19:29:54.013Z,6.20
2023-02-25T19:34:50.711Z,6.40
2023-02-25T19:37:20.671Z,6.10
2023-02-25T19:39:47.528Z,6.30
2023-02-25T19:42:16.765Z,6.20
2023-02-25T19:44:43.596Z,5.90
2023-02-25T19:47:12.692Z,6.10
2023-02-25T19:49:39.424Z,5.90
2023-02-25T19:52:08.296Z,6.00
2023-02-25T19:54:39.896Z,6.00
2023-02-25T19:59:33.665Z,6.00
2023-02-25T20:02:00.336Z,5.90
2023-02-25T20:04:29.379Z,6.20
2023-02-25T20:07:00.784Z,5.80
2023-02-25T20:09:27.524Z,5.80
2023-02-25T20:11:54.238Z,5.80
2023-02-25T20:14:22.902Z,5.80
2023-02-25T20:16:51.936Z,5.80
2023-02-25T20:19:18.604Z,5.80
2023-02-25T20:21:45.285Z,5.70
2023-02-25T20:24:14.624Z,5.60
2023-02-25T20:26:41.349Z,5.60
2023-02-25T20:29:08.448Z,5.70
2023-02-25T20:31:35.240Z,5.70
2023-02-25T20:34:04.704Z,5.70
2023-02-25T20:36:40.787Z,5.70
2023-02-25T20:39:13.596Z,5.70
2023-02-25T20:41:44.814Z,5.60
2023-02-25T20:44:14.485Z,5.60
2023-02-25T20:46:45.056Z,5.60
2023-02-25T20:49:18.030Z,5.60
2023-02-25T20:51:48.198Z,5.50
2023-02-25T20:54:18.967Z,5.50
2023-02-25T20:56:49.430Z,5.50
2023-02-25T20:59:17.592Z,5.30
2023-02-25T21:01:46.580Z,5.40
2023-02-25T21:06:40.432Z,5.30
2023-02-25T21:09:07.301Z,5.40
2023-02-25T21:11:38.703Z,5.20
2023-02-25T21:14:10.269Z,5.30
2023-02-25T21:16:38.325Z,5.20
2023-02-25T21:19:09.042Z,5.60
2023-02-25T21:21:38.989Z,5.10
2023-02-25T21:24:07.266Z,5.00
2023-02-25T21:26:34.399Z,5.30
2023-02-25T21:29:03.564Z,5.10
2023-02-25T21:31:30.476Z,5.20
2023-02-25T21:34:02.579Z,5.20
2023-02-25T21:36:32.019Z,5.10
2023-02-25T21:38:58.735Z,5.20
2023-02-25T21:41:25.393Z,5.10
2023-02-25T21:43:52.912Z,5.00
2023-02-25T21:46:21.935Z,5.10
2023-02-25T21:48:50.549Z,5.10
2023-02-25T21:51:24.187Z,5.10
2023-02-25T21:54:01.113Z,5.10
2023-02-25T21:56:29.637Z,4.60
2023-02-25T21:58:58.537Z,5.10
2023-02-25T22:01:29.053Z,5.00
2023-02-25T22:03:58.878Z,5.10
2023-02-25T22:06:28.798Z,5.10
2023-02-25T22:08:56.570Z,5.10
2023-02-25T22:11:29.008Z,5.00
2023-02-25T22:13:56.443Z,4.90
2023-02-25T22:16:24.012Z,5.00
2023-02-25T22:18:51.737Z,5.20
2023-02-25T22:21:25.813Z,4.90
2023-02-25T22:23:54.884Z,5.00
2023-02-25T22:26:26.817Z,5.20
2023-02-25T22:28:57.845Z,4.80
2023-02-25T22:31:25.127Z,4.90
2023-02-25T22:33:58.310Z,4.90
2023-02-25T22:38:56.467Z,4.80
2023-02-25T22:41:30.117Z,4.80
2023-02-25T22:44:00.273Z,4.80
2023-02-25T22:46:38.366Z,4.90
2023-02-25T22:49:06.413Z,4.80
2023-02-25T22:51:35.756Z,4.90
2023-02-25T22:56:32.411Z,4.60
2023-02-25T22:59:01.662Z,4.70
2023-02-25T23:01:28.539Z,4.70
2023-02-25T23:03:57.562Z,5.10
2023-02-25T23:06:37.426Z,4.70
2023-02-25T23:09:11.468Z,4.50
2023-02-25T23:11:42.292Z,5.20
2023-02-25T23:14:09.077Z,4.60
2023-02-25T23:16:40.427Z,4.60
2023-02-25T23:19:09.749Z,4.70
2023-02-25T23:21:38.718Z,4.70
2023-02-25T23:24:08.923Z,4.80
2023-02-25T23:26:41.539Z,4.80
2023-02-25T23:29:11.814Z,4.50
2023-02-25T23:31:45.741Z,4.60
2023-02-25T23:39:14.560Z,4.50
2023-02-25T23:41:41.990Z,4.50
2023-02-25T23:44:09.530Z,4.80
2023-02-25T23:49:08.686Z,4.60
2023-02-25T23:51:36.321Z,4.50
2023-02-25T23:54:05.876Z,4.50
2023-02-25T23:56:35.454Z,4.40
2023-02-25T23:59:06.874Z,4.60
